Time;durP1;ratioP1;P1;durP2;ratioP2;P2;SDS_P1;SDS_P2;PMS_P1;PMS_P2;Temp;Humidity;BMP_temperature;BMP_pressure;BME280_temperature;BME280_humidity;BME280_pressure;Samples;Min_cycle;Max_cycle;Signal;HPM_P1;HPM_P2
2023/11/19 00:02:23;;;;;;;1.60;0.80;;;6.40;99.90;;;5.45;100.00;99800.53;5010634;28;20037;-79
2023/11/19 00:04:49;;;;;;;1.52;1.00;;;6.50;99.90;;;5.58;100.00;99799.72;5023422;28;20112;-79
2023/11/19 00:07:15;;;;;;;1.00;0.73;;;6.50;99.90;;;5.57;100.00;99789.94;5023335;28;20120;-80
2023/11/19 00:09:43;;;;;;;1.45;1.10;;;6.50;99.90;;;5.64;100.00;99797.25;5016120;28;20390;-80
2023/11/19 00:12:09;;;;;;;1.70;0.90;;;6.50;99.90;;;5.70;100.00;99791.84;5016518;28;20088;-81
2023/11/19 00:14:35;;;;;;;0.60;0.50;;;6.60;99.90;;;5.65;100.00;99793.50;5011307;28;20041;-80
2023/11/19 00:17:00;;;;;;;2.20;0.75;;;6.70;99.90;;;5.82;100.00;99802.06;5011860;28;20743;-82
2023/11/19 00:19:26;;;;;;;1.77;0.70;;;6.70;99.90;;;5.86;100.00;99806.00;5017507;28;20080;-81
2023/11/19 00:21:53;;;;;;;2.20;0.95;;;6.80;99.90;;;5.87;100.00;99796.84;5011635;28;20083;-80
2023/11/19 00:24:18;;;;;;;1.35;0.88;;;6.80;99.90;;;5.83;100.00;99788.28;5011616;28;20034;-81
2023/11/19 00:26:44;;;;;;;1.63;0.88;;;6.80;99.90;;;5.81;100.00;99746.25;4998905;28;20563;-80
2023/11/19 00:29:10;;;;;;;0.82;0.70;;;6.80;99.90;;;5.83;100.00;99766.63;5012490;28;20087;-81
2023/11/19 00:31:36;;;;;;;2.10;1.30;;;6.80;99.90;;;5.78;100.00;99749.38;5015917;28;20467;-81
2023/11/19 00:34:02;;;;;;;1.23;0.90;;;6.80;99.90;;;5.80;100.00;99723.75;5011545;28;20034;-81
2023/11/19 00:36:28;;;;;;;1.42;0.80;;;6.80;99.90;;;5.83;100.00;99715.22;5009028;28;20122;-81
2023/11/19 00:38:55;;;;;;;1.50;0.85;;;6.80;99.90;;;5.82;100.00;99694.59;5024854;28;20029;-81
2023/11/19 00:41:22;;;;;;;1.60;0.90;;;6.80;99.90;;;5.85;100.00;99704.19;5010829;28;20076;-81
2023/11/19 00:43:49;;;;;;;1.17;0.98;;;6.80;99.90;;;5.79;100.00;99680.66;5011096;28;20542;-81
2023/11/19 00:46:15;;;;;;;2.47;1.20;;;6.80;99.90;;;5.83;100.00;99652.13;5013873;28;20029;-81
2023/11/19 00:48:40;;;;;;;1.63;0.98;;;6.80;99.90;;;5.80;100.00;99647.97;5021231;28;20107;-81
2023/11/19 00:51:06;;;;;;;1.70;1.10;;;6.80;99.90;;;5.81;100.00;99635.28;5016685;28;20477;-81
2023/11/19 00:53:33;;;;;;;2.00;1.15;;;6.80;99.90;;;5.66;100.00;99611.13;5014959;28;20084;-80
2023/11/19 00:56:00;;;;;;;3.47;1.10;;;6.80;99.90;;;5.82;100.00;99605.28;5029095;28;20128;-81
2023/11/19 00:58:26;;;;;;;1.42;0.98;;;6.80;99.90;;;5.83;100.00;99601.50;5015562;28;20045;-81
2023/11/19 01:00:52;;;;;;;2.75;1.23;;;6.80;99.90;;;5.84;100.00;99581.56;5015272;28;20038;-80
2023/11/19 01:03:18;;;;;;;2.70;1.63;;;6.80;99.90;;;5.87;100.00;99583.00;4998660;28;20104;-80
2023/11/19 01:05:46;;;;;;;2.88;1.60;;;6.80;99.90;;;5.80;100.00;99547.81;5036751;28;20045;-81
2023/11/19 01:08:12;;;;;;;2.63;1.70;;;6.80;99.90;;;5.85;100.00;99553.44;5019486;28;20310;-80
2023/11/19 01:10:38;;;;;;;2.97;1.77;;;6.90;99.90;;;5.87;100.00;99540.53;5015455;28;20124;-80
2023/11/19 01:13:07;;;;;;;3.78;2.20;;;6.80;99.90;;;5.88;100.00;99527.81;5028562;28;20120;-79
2023/11/19 01:15:33;;;;;;;3.50;2.08;;;6.90;99.90;;;5.83;100.00;99493.25;5024202;28;20080;-81
2023/11/19 01:17:59;;;;;;;3.85;2.20;;;6.90;99.90;;;5.90;100.00;99488.66;5029400;28;20065;-81
2023/11/19 01:20:26;;;;;;;3.50;2.42;;;6.90;99.90;;;5.92;100.00;99474.06;5028534;28;20084;-80
2023/11/19 01:22:52;;;;;;;3.90;2.78;;;6.90;99.90;;;5.99;100.00;99474.88;5014895;28;20798;-81
2023/11/19 01:25:17;;;;;;;3.53;2.58;;;7.00;99.90;;;5.98;100.00;99451.53;5014514;28;20054;-81
2023/11/19 01:27:45;;;;;;;3.65;2.72;;;6.90;99.90;;;5.95;100.00;99430.31;5014870;28;20030;-82
2023/11/19 01:30:14;;;;;;;4.53;2.97;;;7.00;99.90;;;6.00;100.00;99436.75;5014952;28;20032;-81
2023/11/19 01:32:40;;;;;;;3.53;2.70;;;7.00;99.90;;;6.06;100.00;99426.13;5024109;28;20068;-81
2023/11/19 01:35:07;;;;;;;4.05;3.00;;;7.00;99.90;;;6.09;100.00;99442.75;5028079;28;20025;-80
2023/11/19 01:37:35;;;;;;;6.22;3.33;;;7.00;99.90;;;6.08;100.00;99418.63;5021452;28;20048;-81
2023/11/19 01:40:02;;;;;;;5.25;3.45;;;7.10;99.90;;;6.11;100.00;99410.91;5029983;28;20401;-80
2023/11/19 01:42:28;;;;;;;4.97;3.58;;;7.10;99.90;;;6.14;100.00;99407.75;5023890;28;20030;-81
2023/11/19 01:45:01;;;;;;;4.07;3.20;;;7.10;99.90;;;6.15;100.00;99392.31;5014446;28;20445;-81
2023/11/19 01:47:31;;;;;;;5.13;3.50;;;7.10;99.90;;;6.20;100.00;99387.06;5027457;28;20033;-81
2023/11/19 01:49:58;;;;;;;4.28;3.35;;;7.10;99.90;;;6.19;100.00;99366.47;5022316;28;20037;-80
2023/11/19 01:52:25;;;;;;;4.90;3.27;;;7.10;99.90;;;6.20;100.00;99362.69;5034575;28;20036;-80
2023/11/19 01:54:54;;;;;;;4.30;3.38;;;7.20;99.90;;;6.16;100.00;99356.06;5025586;28;20317;-81
2023/11/19 01:57:22;;;;;;;6.05;3.05;;;7.20;99.90;;;6.19;100.00;99358.34;5014949;28;20567;-81
2023/11/19 01:59:52;;;;;;;4.88;3.15;;;7.20;99.90;;;6.22;100.00;99371.44;5025585;28;20486;-81
2023/11/19 02:02:21;;;;;;;4.85;3.17;;;7.20;99.90;;;6.29;100.00;99349.72;5025134;28;20963;-79
2023/11/19 02:04:49;;;;;;;4.60;3.13;;;7.20;99.90;;;6.30;100.00;99325.13;5015969;28;20042;-81
2023/11/19 02:07:17;;;;;;;6.25;3.03;;;7.30;99.90;;;6.25;100.00;99333.09;5024737;28;20050;-81
2023/11/19 02:09:43;;;;;;;4.68;3.10;;;7.20;99.90;;;6.31;100.00;99323.25;5020182;28;20083;-81
2023/11/19 02:12:13;;;;;;;4.78;3.10;;;7.30;99.90;;;6.28;100.00;99307.44;5013926;28;20454;-82
2023/11/19 02:14:39;;;;;;;5.32;3.15;;;7.30;99.90;;;6.35;100.00;99310.09;5028222;28;20038;-81
2023/11/19 02:17:05;;;;;;;4.63;3.17;;;7.30;99.90;;;6.29;100.00;99290.97;5020136;28;20088;-82
2023/11/19 02:19:30;;;;;;;5.38;2.67;;;7.30;99.90;;;6.32;100.00;99278.84;5030820;28;20116;-82
2023/11/19 02:21:56;;;;;;;5.03;3.13;;;7.30;99.90;;;6.39;100.00;99278.78;5025549;28;20045;-81
2023/11/19 02:24:29;;;;;;;5.03;2.70;;;7.30;99.90;;;6.37;100.00;99261.94;5023718;28;20041;-80
2023/11/19 02:27:26;;;;;;;4.32;2.63;;;7.40;99.90;;;6.41;100.00;99258.56;5029462;28;20157;-81
2023/11/19 02:29:53;;;;;;;4.07;2.50;;;7.40;99.90;;;6.41;100.00;99230.63;5029448;28;20042;-79
2023/11/19 02:32:20;;;;;;;4.57;2.72;;;7.40;99.90;;;6.47;100.00;99237.84;5014090;28;20030;-80
2023/11/19 02:34:45;;;;;;;4.00;2.40;;;7.40;99.90;;;6.48;100.00;99228.69;5014601;28;20045;-79
2023/11/19 02:37:12;;;;;;;3.55;2.40;;;7.40;99.90;;;6.51;100.00;99222.84;5014252;28;20046;-81
2023/11/19 02:39:37;;;;;;;4.85;2.30;;;7.50;99.90;;;6.57;100.00;99208.38;5016814;28;20038;-81
2023/11/19 02:42:03;;;;;;;6.20;1.83;;;7.50;99.90;;;6.52;100.00;99196.56;5022787;28;20080;-82
2023/11/19 02:44:30;;;;;;;3.58;1.70;;;7.50;99.90;;;6.64;100.00;99197.47;5019350;28;20397;-82
2023/11/19 02:46:59;;;;;;;4.03;1.50;;;7.60;99.90;;;6.66;100.00;99176.38;5024255;28;20040;-80
2023/11/19 02:49:25;;;;;;;2.22;1.30;;;7.60;99.90;;;6.68;100.00;99157.16;5012293;28;20041;-80
2023/11/19 02:51:51;;;;;;;2.33;1.45;;;7.60;99.90;;;6.72;100.00;99159.22;5014511;28;20049;-81
2023/11/19 02:54:17;;;;;;;2.58;1.52;;;7.70;99.90;;;6.73;100.00;99154.59;5025819;28;20065;-81
2023/11/19 02:56:43;;;;;;;2.35;1.58;;;7.70;99.90;;;6.74;100.00;99135.41;5032009;28;20107;-81
2023/11/19 02:59:18;;;;;;;2.30;1.55;;;7.70;99.90;;;6.79;100.00;99145.56;5017023;28;20022;-82
2023/11/19 03:01:49;;;;;;;1.98;1.50;;;7.70;99.90;;;6.84;100.00;99139.44;5015946;28;20071;-81
2023/11/19 03:04:17;;;;;;;2.47;1.70;;;7.70;99.90;;;6.89;100.00;99134.16;5014839;28;20389;-81
2023/11/19 03:06:42;;;;;;;2.80;1.80;;;7.70;99.90;;;6.89;100.00;99129.59;5024683;28;20358;-81
2023/11/19 03:09:10;;;;;;;2.90;1.92;;;7.80;99.90;;;6.86;100.00;99126.50;5012895;28;20041;-81
2023/11/19 03:11:36;;;;;;;2.85;1.58;;;7.80;99.90;;;6.86;100.00;99116.50;5024882;28;20493;-80
2023/11/19 03:14:03;;;;;;;3.00;1.80;;;7.80;99.90;;;7.00;100.00;99133.41;5013310;28;20030;-82
2023/11/19 03:16:29;;;;;;;3.40;1.50;;;7.90;99.90;;;7.02;100.00;99111.44;5024498;28;20034;-81
2023/11/19 03:18:55;;;;;;;4.70;1.60;;;7.90;99.90;;;7.00;100.00;99106.28;5012975;28;20038;-81
2023/11/19 03:21:31;;;;;;;2.13;1.42;;;7.90;99.90;;;7.03;100.00;99111.25;4996364;28;20041;-81
2023/11/19 03:24:00;;;;;;;3.15;1.50;;;7.90;99.90;;;7.08;100.00;99123.28;5012112;28;20046;-82
2023/11/19 03:26:27;;;;;;;4.03;1.50;;;7.90;99.90;;;7.14;100.00;99125.91;5013101;28;20096;-83
2023/11/19 03:28:54;;;;;;;3.00;1.48;;;8.00;99.90;;;7.16;100.00;99123.78;5012657;28;20040;-82
2023/11/19 03:31:20;;;;;;;2.20;1.30;;;8.00;99.90;;;7.20;100.00;99122.25;5023507;28;20068;-82
2023/11/19 03:33:46;;;;;;;3.88;1.30;;;8.00;99.90;;;7.20;100.00;99111.41;5012975;28;20113;-82
2023/11/19 03:36:12;;;;;;;2.72;1.40;;;8.10;99.90;;;7.25;100.00;99118.00;5025058;28;20076;-82
2023/11/19 03:38:38;;;;;;;2.05;1.23;;;8.10;99.90;;;7.27;100.00;99122.16;5011056;28;20026;-82
2023/11/19 03:41:14;;;;;;;2.15;1.30;;;8.10;99.90;;;7.32;100.00;99114.13;5028076;28;20068;-81
2023/11/19 03:43:41;;;;;;;2.40;1.50;;;8.20;99.90;;;7.39;100.00;99124.06;5014611;28;20037;-82
2023/11/19 03:46:20;;;;;;;4.40;1.45;;;8.20;99.90;;;7.41;100.00;99133.63;5012867;28;20030;-82
2023/11/19 03:48:50;;;;;;;2.38;1.30;;;8.30;99.90;;;7.44;100.00;99132.34;5017930;28;20033;-82
2023/11/19 03:51:16;;;;;;;1.95;1.38;;;8.30;99.90;;;7.47;100.00;99124.53;5012477;28;20056;-82
2023/11/19 03:53:46;;;;;;;2.45;1.42;;;8.30;99.90;;;7.54;100.00;99126.31;5012212;28;20037;-82
2023/11/19 03:56:12;;;;;;;3.58;1.60;;;8.30;99.90;;;7.51;100.00;99124.06;5031118;28;20034;-82
2023/11/19 03:58:39;;;;;;;4.70;1.30;;;8.40;99.90;;;7.58;100.00;99122.91;5011901;28;20033;-81
2023/11/19 04:01:10;;;;;;;4.13;1.63;;;8.40;99.90;;;7.59;100.00;99102.84;5029518;28;20089;-82
2023/11/19 04:03:36;;;;;;;3.90;1.60;;;8.40;99.90;;;7.59;100.00;99107.47;5009596;28;20040;-82
2023/11/19 04:06:02;;;;;;;3.40;1.77;;;8.50;99.90;;;7.58;100.00;99101.19;5012525;28;20042;-79
2023/11/19 04:08:29;;;;;;;3.03;1.88;;;8.50;99.90;;;7.61;100.00;99099.91;5013340;28;20118;-83
2023/11/19 04:10:54;;;;;;;2.92;1.70;;;8.50;99.90;;;7.59;100.00;99102.03;5030183;28;20363;-81
2023/11/19 04:13:20;;;;;;;2.83;1.60;;;8.50;99.90;;;7.59;100.00;99102.03;5015200;28;20057;-81
2023/11/19 04:15:46;;;;;;;3.33;1.80;;;8.50;99.90;;;7.65;100.00;99100.25;5017532;28;20037;-81
2023/11/19 04:18:12;;;;;;;3.00;1.58;;;8.50;99.90;;;7.66;100.00;99096.47;5026613;28;20037;-81
2023/11/19 04:20:37;;;;;;;3.45;1.70;;;8.50;99.90;;;7.66;100.00;99094.59;5013462;28;20490;-80
2023/11/19 04:23:03;;;;;;;3.42;1.63;;;8.50;99.90;;;7.69;100.00;99104.13;5025740;28;20034;-81
2023/11/19 04:25:29;;;;;;;2.90;1.70;;;8.60;99.90;;;7.73;100.00;99103.44;5015962;28;20142;-81
2023/11/19 04:27:54;;;;;;;2.50;1.60;;;8.60;99.90;;;7.78;100.00;99119.03;5011613;28;20900;-80
2023/11/19 04:30:20;;;;;;;5.70;2.10;;;8.60;99.90;;;7.77;100.00;99131.75;5019542;28;20050;-80
2023/11/19 04:32:46;;;;;;;3.40;1.70;;;8.60;99.90;;;7.78;100.00;99100.03;5027965;28;20493;-80
2023/11/19 04:35:13;;;;;;;2.83;1.70;;;8.60;99.90;;;7.87;100.00;99123.03;5023955;28;20041;-80
2023/11/19 04:37:39;;;;;;;4.40;1.90;;;8.70;99.90;;;7.89;100.00;99120.91;5011249;28;20038;-81
2023/11/19 04:40:05;;;;;;;4.32;1.90;;;8.70;99.90;;;7.98;100.00;99120.56;5010213;28;20109;-81
2023/11/19 04:42:32;;;;;;;6.93;2.50;;;8.70;99.90;;;7.93;100.00;99107.69;5024532;28;20052;-81
2023/11/19 04:44:58;;;;;;;5.82;2.33;;;8.80;99.90;;;7.99;100.00;99117.59;5014733;28;20125;-81
2023/11/19 04:47:23;;;;;;;3.53;2.20;;;8.80;99.90;;;8.10;100.00;99129.53;5023304;28;20121;-81
2023/11/19 04:49:49;;;;;;;5.22;2.45;;;8.90;99.90;;;8.06;100.00;99129.16;5018476;28;20357;-80
2023/11/19 04:52:15;;;;;;;4.68;2.70;;;8.90;99.90;;;8.17;100.00;99145.69;5013504;28;20044;-81
2023/11/19 04:54:42;;;;;;;6.85;2.80;;;8.90;99.90;;;8.21;100.00;99146.88;5022968;28;20037;-82
2023/11/19 04:57:12;;;;;;;5.38;3.08;;;9.00;99.90;;;8.29;100.00;99146.50;5012395;28;20054;-82
2023/11/19 04:59:38;;;;;;;7.68;3.35;;;9.10;99.90;;;8.39;100.00;99143.19;5029486;28;20054;-81
2023/11/19 05:02:04;;;;;;;6.53;3.63;;;9.20;99.90;;;8.40;100.00;99155.69;5019940;28;20034;-80
2023/11/19 05:04:31;;;;;;;7.43;3.45;;;9.20;99.90;;;8.42;100.00;99152.75;5013776;28;20046;-80
2023/11/19 05:06:57;;;;;;;6.68;3.50;;;9.30;99.90;;;8.46;100.00;99151.22;5011102;28;20133;-80
2023/11/19 05:09:23;;;;;;;7.80;4.28;;;9.30;99.90;;;8.51;100.00;99139.66;5012211;28;20065;-80
2023/11/19 05:11:49;;;;;;;6.85;4.50;;;9.30;99.90;;;8.55;100.00;99125.31;5019503;28;20048;-81
2023/11/19 05:14:15;;;;;;;8.10;4.70;;;9.30;99.90;;;8.61;100.00;99132.50;5009485;28;20382;-81
2023/11/19 05:16:41;;;;;;;7.10;5.00;;;9.40;99.90;;;8.61;100.00;99110.75;5020275;28;20049;-81
2023/11/19 05:19:07;;;;;;;11.07;5.40;;;9.40;99.90;;;8.67;100.00;99106.25;5012228;28;20094;-82
2023/11/19 05:21:34;;;;;;;13.02;6.00;;;9.40;99.90;;;8.81;100.00;99095.91;5021575;28;20375;-82
2023/11/19 05:24:00;;;;;;;12.23;6.78;;;9.50;99.90;;;8.91;100.00;99078.97;5024006;28;20045;-81
2023/11/19 05:26:26;;;;;;;11.07;5.97;;;9.60;99.90;;;8.95;100.00;99073.88;5030574;28;20588;-82
2023/11/19 05:28:52;;;;;;;11.05;6.13;;;9.70;99.90;;;8.90;100.00;99078.16;5029448;28;20504;-83
2023/11/19 05:31:18;;;;;;;11.07;6.40;;;9.70;99.90;;;8.92;100.00;99084.19;5027318;28;20042;-81
2023/11/19 05:33:44;;;;;;;11.35;6.22;;;9.70;99.90;;;8.95;100.00;99090.19;5032007;28;20056;-82
2023/11/19 05:36:12;;;;;;;12.60;7.18;;;9.70;99.90;;;9.02;100.00;99082.69;5029899;28;20034;-81
2023/11/19 05:38:38;;;;;;;11.65;6.90;;;9.80;99.90;;;9.09;100.00;99074.41;5034061;28;20508;-80
2023/11/19 05:41:05;;;;;;;12.88;7.32;;;9.80;99.90;;;9.16;100.00;99083.22;5031361;28;20034;-81
2023/11/19 05:43:32;;;;;;;11.93;7.50;;;9.90;99.90;;;9.23;100.00;99088.50;5028445;28;20041;-82
2023/11/19 05:45:58;;;;;;;17.38;8.02;;;9.90;99.90;;;9.18;100.00;99100.13;5032561;28;20085;-81
2023/11/19 05:48:26;;;;;;;14.38;7.07;;;9.90;99.90;;;9.15;100.00;99092.44;5029005;28;20029;-81
2023/11/19 05:50:52;;;;;;;14.73;7.20;;;9.90;99.90;;;9.23;100.00;99102.91;5033038;28;20110;-81
2023/11/19 05:53:18;;;;;;;12.50;7.55;;;9.90;99.90;;;9.27;100.00;99108.72;5027171;28;20069;-82
2023/11/19 05:55:49;;;;;;;10.98;7.85;;;10.00;99.90;;;9.32;100.00;99112.34;5032432;28;20069;-83
2023/11/19 05:58:15;;;;;;;12.35;7.88;;;10.10;99.90;;;9.35;100.00;99108.28;5028102;28;20037;-80
2023/11/19 06:00:41;;;;;;;13.02;7.57;;;10.10;99.90;;;9.28;100.00;99105.75;5027234;28;20057;-82
2023/11/19 06:03:07;;;;;;;13.93;8.07;;;10.10;99.90;;;9.29;100.00;99112.00;5028702;28;20037;-82
2023/11/19 06:05:33;;;;;;;14.68;7.70;;;10.00;99.90;;;9.21;100.00;99110.50;5024553;28;20037;-81
2023/11/19 06:07:59;;;;;;;14.90;9.13;;;10.00;99.90;;;9.25;100.00;99097.25;5018977;28;20041;-83
2023/11/19 06:10:30;;;;;;;16.25;8.73;;;10.00;99.90;;;9.24;100.00;99085.53;5027043;28;20033;-81
2023/11/19 06:13:00;;;;;;;19.10;8.57;;;10.00;99.90;;;9.29;100.00;99080.19;5018771;28;20099;-82
2023/11/19 06:15:29;;;;;;;15.20;8.68;;;10.00;99.90;;;9.32;100.00;99071.53;5014925;28;20124;-82
2023/11/19 06:17:55;;;;;;;16.98;9.23;;;10.10;99.90;;;9.32;100.00;99071.53;5020831;28;20423;-82
2023/11/19 06:20:21;;;;;;;14.70;9.27;;;10.10;99.90;;;9.41;100.00;99054.78;5009236;28;20038;-83
2023/11/19 06:22:47;;;;;;;20.33;9.57;;;10.20;99.90;;;9.52;100.00;99051.13;5021643;28;20057;-81
2023/11/19 06:25:14;;;;;;;20.88;10.52;;;10.30;99.90;;;9.70;100.00;99051.94;5012910;28;20060;-83
2023/11/19 06:27:43;;;;;;;17.65;10.43;;;10.40;99.90;;;9.76;100.00;99040.03;5014100;28;20081;-83
2023/11/19 06:30:09;;;;;;;20.45;10.40;;;10.50;99.90;;;9.79;100.00;99048.53;5016751;28;20502;-83
2023/11/19 06:32:36;;;;;;;18.65;10.80;;;10.50;99.90;;;9.82;100.00;99066.28;5030465;28;20046;-83
2023/11/19 06:35:04;;;;;;;17.50;9.68;;;;;;;9.88;100.00;99072.63;5014823;28;20053;-83
2023/11/19 06:37:30;;;;;;;18.42;10.15;;;10.60;99.90;;;9.90;100.00;99090.38;5019130;28;20021;-83
2023/11/19 06:39:56;;;;;;;23.48;9.70;;;10.60;99.90;;;9.91;100.00;99111.09;5023467;28;21908;-84
2023/11/19 06:42:21;;;;;;;20.17;10.63;;;10.70;99.90;;;10.01;100.00;99117.75;5022939;28;20030;-84
2023/11/19 06:44:47;;;;;;;20.17;9.63;;;10.70;99.90;;;10.10;100.00;99151.69;5019145;28;20440;-85
2023/11/19 06:47:13;;;;;;;20.65;9.63;;;10.80;99.90;;;10.15;100.00;99175.44;5013030;28;20607;-85
2023/11/19 06:49:38;;;;;;;22.35;9.80;;;10.80;99.90;;;10.32;100.00;99199.94;5013399;28;20042;-83
2023/11/19 06:52:04;;;;;;;19.50;8.18;;;11.00;99.90;;;10.44;100.00;99251.66;5013363;28;20095;-82
2023/11/19 06:54:31;;;;;;;15.68;8.63;;;11.10;99.90;;;10.59;100.00;99291.97;5011712;28;20053;-82
2023/11/19 06:56:57;;;;;;;15.40;8.02;;;11.30;99.90;;;10.62;100.00;99326.94;5013237;28;20084;-82
2023/11/19 06:59:23;;;;;;;16.98;7.43;;;11.30;99.90;;;10.59;100.00;99341.91;5012879;28;20095;-82
2023/11/19 07:01:49;;;;;;;16.85;7.32;;;11.30;99.90;;;10.75;100.00;99369.41;5012382;28;20383;-82
2023/11/19 07:04:14;;;;;;;16.95;7.10;;;11.50;99.90;;;10.72;100.00;99394.44;5015951;28;20396;-82
2023/11/19 07:06:43;;;;;;;14.45;6.53;;;11.40;99.90;;;10.73;100.00;99418.75;5012850;28;20054;-80
2023/11/19 07:09:09;;;;;;;17.23;6.43;;;11.50;99.90;;;10.65;100.00;99409.09;5031994;28;20366;-83
2023/11/19 07:11:40;;;;;;;21.15;7.07;;;11.40;99.90;;;10.63;100.00;99410.41;5013654;28;20152;-83
2023/11/19 07:14:07;;;;;;;16.05;6.13;;;11.40;99.90;;;10.64;100.00;99412.06;5013055;28;20119;-82
2023/11/19 07:16:37;;;;;;;18.17;6.03;;;11.40;99.90;;;10.57;100.00;99398.59;5032231;28;20556;-81
2023/11/19 07:19:05;;;;;;;16.85;5.40;;;11.40;99.90;;;10.56;100.00;99393.38;5021447;28;20033;-81
2023/11/19 07:21:32;;;;;;;17.17;5.22;;;11.40;99.90;;;10.50;100.00;99401.47;5015807;28;20042;-80
2023/11/19 07:23:58;;;;;;;17.60;5.15;;;11.30;99.90;;;10.48;100.00;99395.44;5021782;28;20046;-81
2023/11/19 07:26:25;;;;;;;26.65;5.45;;;11.30;99.90;;;10.46;100.00;99389.41;5022812;28;20038;-83
2023/11/19 07:28:51;;;;;;;23.52;5.65;;;11.30;99.90;;;10.38;100.00;99405.31;5024275;28;20046;-81
2023/11/19 07:31:20;;;;;;;17.90;4.60;;;11.20;99.90;;;10.33;100.00;99404.16;5013365;28;20041;-85
2023/11/19 07:33:47;;;;;;;24.25;4.40;;;11.10;99.90;;;10.38;100.00;99446.19;5018491;28;20034;-82
2023/11/19 07:36:13;;;;;;;21.30;4.30;;;11.20;99.90;;;10.34;100.00;99460.34;5011607;28;20083;-83
2023/11/19 07:38:40;;;;;;;17.60;4.40;;;11.10;99.90;;;10.39;100.00;99478.69;5011206;28;20037;-81
2023/11/19 07:41:06;;;;;;;19.13;4.80;;;11.20;99.90;;;10.43;100.00;99500.84;5016164;28;20041;-84
2023/11/19 07:43:33;;;;;;;21.73;4.45;;;11.20;99.90;;;10.48;100.00;99509.16;5023437;28;20105;-85
2023/11/19 07:45:59;;;;;;;23.10;5.18;;;11.20;99.90;;;10.43;100.00;99518.06;5030355;28;20120;-85
2023/11/19 07:48:25;;;;;;;18.00;3.78;;;11.30;99.90;;;10.50;100.00;99546.00;5033851;28;20129;-85
2023/11/19 07:50:53;;;;;;;19.75;3.78;;;11.30;99.90;;;10.56;100.00;99573.34;5023836;28;20495;-85
2023/11/19 07:53:19;;;;;;;21.83;4.50;;;11.40;99.90;;;10.57;100.00;99600.41;5028198;28;20065;-83
2023/11/19 07:55:46;;;;;;;21.02;3.70;;;11.40;99.90;;;10.67;100.00;99610.69;5031173;28;20122;-81
2023/11/19 07:58:12;;;;;;;20.17;4.32;;;11.50;99.90;;;10.72;100.00;99629.03;5024260;28;20029;-83
2023/11/19 08:00:38;;;;;;;17.50;4.15;;;11.60;99.90;;;10.86;100.00;99651.41;5029858;28;20046;-84
2023/11/19 08:03:04;;;;;;;28.15;4.95;;;11.70;99.90;;;11.02;100.00;99694.31;5026890;28;20137;-88
2023/11/19 08:05:33;;;;;;;22.60;3.40;;;11.80;99.90;;;11.23;100.00;99727.47;5027673;28;20045;-84
2023/11/19 08:07:59;;;;;;;17.42;3.60;;;12.00;99.90;;;11.25;100.00;99729.94;5021398;28;20036;-84
2023/11/19 08:10:25;;;;;;;19.58;3.25;;;12.10;99.90;;;11.33;100.00;99751.41;5026293;28;20046;-81
2023/11/19 08:12:51;;;;;;;13.45;3.10;;;12.10;99.90;;;11.44;100.00;99777.00;5025304;28;20164;-82
2023/11/19 08:15:16;;;;;;;17.08;4.13;;;12.20;99.90;;;11.51;100.00;99762.09;5024388;28;20051;-82
2023/11/19 08:17:48;;;;;;;20.75;3.90;;;12.20;99.90;;;11.53;100.00;99775.53;5027616;28;20030;-83
2023/11/19 08:20:16;;;;;;;20.85;4.35;;;12.30;99.90;;;11.47;100.00;99771.06;5025226;28;20156;-83
2023/11/19 08:22:42;;;;;;;24.50;3.60;;;12.30;99.90;;;11.56;100.00;99785.97;5040195;28;20120;-84
2023/11/19 08:25:08;;;;;;;19.70;3.72;;;12.30;99.90;;;11.59;100.00;99787.38;5017792;28;20038;-82
2023/11/19 08:27:34;;;;;;;19.42;4.22;;;12.30;99.90;;;11.63;100.00;99785.81;5032253;28;20049;-83
2023/11/19 08:30:00;;;;;;;19.75;4.25;;;12.30;99.90;;;11.51;100.00;99783.16;5031464;28;20481;-82
2023/11/19 08:32:27;;;;;;;19.80;4.15;;;12.30;99.90;;;11.45;100.00;99789.59;5011506;28;20068;-84
2023/11/19 08:34:53;;;;;;;19.23;3.70;;;12.30;99.90;;;11.36;100.00;99791.88;5024578;28;20037;-83
2023/11/19 08:37:20;;;;;;;23.48;4.40;;;12.20;99.90;;;11.16;100.00;99770.47;5023055;28;20029;-84
2023/11/19 08:39:50;;;;;;;21.98;4.65;;;12.10;99.90;;;11.27;100.00;99801.50;5024753;28;20538;-83
2023/11/19 08:42:19;;;;;;;21.25;3.83;;;12.00;99.90;;;11.26;100.00;99792.50;5022446;28;20157;-83
2023/11/19 08:44:50;;;;;;;20.10;3.75;;;12.10;99.90;;;11.25;100.00;99781.81;5027364;28;20029;-83
2023/11/19 08:47:23;;;;;;;19.27;4.10;;;12.10;99.90;;;11.26;100.00;99787.03;5012762;28;20061;-85
2023/11/19 08:49:54;;;;;;;20.33;3.72;;;12.10;99.90;;;11.23;100.00;99774.69;5019388;28;20067;-80
2023/11/19 08:52:20;;;;;;;29.58;4.50;;;12.10;99.90;;;11.31;100.00;99784.41;5025428;28;20114;-82
2023/11/19 08:54:46;;;;;;;23.63;4.20;;;12.20;99.90;;;11.34;100.00;99786.63;5027813;28;20033;-79
2023/11/19 08:57:12;;;;;;;20.95;4.25;;;12.20;99.90;;;11.53;100.00;99786.47;5010395;28;20083;-82
2023/11/19 08:59:38;;;;;;;19.27;4.20;;;12.30;99.90;;;11.35;100.00;99768.38;5027640;28;20135;-83
2023/11/19 09:02:06;;;;;;;15.82;3.83;;;12.30;99.90;;;11.50;100.00;99801.41;5023865;28;20030;-82
2023/11/19 09:04:32;;;;;;;21.90;3.97;;;12.30;99.90;;;11.32;100.00;99791.53;5027597;28;20038;-83
2023/11/19 09:06:58;;;;;;;24.23;4.65;;;12.20;99.90;;;11.37;100.00;99805.25;5033380;28;20048;-84
2023/11/19 09:09:25;;;;;;;23.50;4.53;;;12.20;99.90;;;11.42;100.00;99818.19;5036295;28;20144;-87
2023/11/19 09:11:51;;;;;;;23.80;4.40;;;12.20;99.90;;;11.46;100.00;99805.72;5026740;28;20030;-84
2023/11/19 09:14:18;;;;;;;22.50;4.75;;;12.30;99.90;;;11.64;100.00;99814.81;5029419;28;20033;-83
2023/11/19 09:16:43;;;;;;;20.87;4.20;;;12.40;99.90;;;11.69;100.00;99811.34;5027742;28;20073;-82
2023/11/19 09:19:09;;;;;;;19.65;4.00;;;12.50;99.90;;;11.86;100.00;99828.59;5027528;28;20305;-82
2023/11/19 09:21:38;;;;;;;21.38;4.20;;;12.60;99.90;;;12.10;100.00;99819.47;5032694;28;20053;-82
2023/11/19 09:24:04;;;;;;;27.27;4.97;;;12.80;99.90;;;12.19;100.00;99840.66;5018406;28;20050;-83
2023/11/19 09:26:30;;;;;;;22.98;4.30;;;12.90;99.90;;;12.01;100.00;99835.44;5021749;28;20107;-80
2023/11/19 09:28:56;;;;;;;22.95;3.95;;;12.80;99.90;;;11.91;100.00;99836.06;5020870;28;20049;-82
2023/11/19 09:31:22;;;;;;;18.80;4.43;;;12.70;99.90;;;12.04;100.00;99846.69;5022114;28;20034;-80
2023/11/19 09:33:48;;;;;;;24.88;4.40;;;;;;;12.34;100.00;99853.81;5023580;28;20043;-81
2023/11/19 09:36:16;;;;;;;23.92;4.10;;;12.90;99.90;;;12.43;100.00;99832.31;5027872;28;20051;-83
2023/11/19 09:38:45;;;;;;;22.23;3.88;;;;;;;13.04;100.00;99849.91;5019091;28;20303;-82
2023/11/19 09:41:13;;;;;;;18.02;3.85;;;;;;;12.97;100.00;99847.34;5012913;28;20060;-81
2023/11/19 09:43:42;;;;;;;20.27;3.92;;;13.70;99.90;;;12.66;100.00;99847.72;5014376;28;20037;-80
2023/11/19 09:46:15;;;;;;;23.80;3.92;;;13.80;99.90;;;12.62;100.00;99856.69;5028729;28;20049;-80
2023/11/19 09:48:42;;;;;;;21.65;4.30;;;13.60;99.90;;;12.89;100.00;99848.63;5028570;28;20037;-81
2023/11/19 09:51:10;;;;;;;20.95;4.32;;;;;;;13.52;100.00;99855.72;5016581;28;20516;-79
2023/11/19 09:53:37;;;;;;;21.65;3.30;;;;;;;13.71;100.00;99848.03;5014901;28;20128;-83
2023/11/19 09:56:04;;;;;;;24.00;3.92;;;;;;;13.41;100.00;99854.78;5017699;28;20061;-81
2023/11/19 09:58:32;;;;;;;20.77;3.97;;;;;;;14.19;100.00;99859.19;5019011;28;20038;-86
2023/11/19 10:00:59;;;;;;;18.98;4.13;;;;;;;14.77;100.00;99852.25;5016289;28;20050;-82
2023/11/19 10:03:32;;;;;;;22.75;4.40;;;;;;;14.71;100.00;99856.03;5038558;28;20034;-87
2023/11/19 10:06:00;;;;;;;19.27;3.65;;;;;;;14.67;100.00;99850.25;5026748;28;20454;-85
2023/11/19 10:08:26;;;;;;;22.95;4.15;;;;;;;14.70;100.00;99846.97;5015509;28;20050;-85
2023/11/19 10:10:53;;;;;;;21.25;3.92;;;;;;;15.15;100.00;99849.47;5029740;28;20045;-83
2023/11/19 10:13:47;;;;;;;22.73;4.07;;;;;;;15.92;100.00;99835.19;5026242;28;20133;-81
2023/11/19 10:16:17;;;;;;;18.33;3.50;;;;;;;16.13;100.00;99858.03;5026145;28;20124;-82
2023/11/19 10:18:45;;;;;;;23.02;3.67;;;;;;;15.15;100.00;99857.72;5018180;28;20037;-82
2023/11/19 10:21:23;;;;;;;24.60;4.10;;;;;;;14.54;100.00;99854.25;5026375;28;20059;-82
2023/11/19 10:23:56;;;;;;;32.78;4.85;;;;;;;14.76;100.00;99850.63;5025041;28;20604;-82